sensor_id;sensor_type;location;lat;lon;timestamp;P1;durP1;ratioP1;P2;durP2;ratioP2
54368;SDS011;40266;52.434;17.056;2023-02-24T00:13:50;71.60;;;39.10;;
54368;SDS011;40266;52.434;17.056;2023-02-24T00:37:36;64.20;;;34.00;;
54368;SDS011;40266;52.434;17.056;2023-02-24T00:44:59;56.00;;;32.30;;
54368;SDS011;40266;52.434;17.056;2023-02-24T00:57:14;53.30;;;30.40;;
54368;SDS011;40266;52.434;17.056;2023-02-24T01:12:12;42.60;;;24.50;;
54368;SDS011;40266;52.434;17.056;2023-02-24T01:20:11;51.40;;;27.50;;
54368;SDS011;40266;52.434;17.056;2023-02-24T01:23:39;47.10;;;26.10;;
54368;SDS011;40266;52.434;17.056;2023-02-24T01:34:54;45.90;;;25.50;;
54368;SDS011;40266;52.434;17.056;2023-02-24T01:38:44;46.90;;;26.30;;
54368;SDS011;40266;52.434;17.056;2023-02-24T01:54:45;46.50;;;24.00;;
54368;SDS011;40266;52.434;17.056;2023-02-24T01:58:27;48.10;;;27.10;;
54368;SDS011;40266;52.434;17.056;2023-02-24T02:06:09;48.70;;;25.30;;
54368;SDS011;40266;52.434;17.056;2023-02-24T02:08:54;48.40;;;25.10;;
54368;SDS011;40266;52.434;17.056;2023-02-24T02:11:38;45.30;;;25.30;;
54368;SDS011;40266;52.434;17.056;2023-02-24T02:14:22;44.30;;;25.80;;
54368;SDS011;40266;52.434;17.056;2023-02-24T02:35:11;51.20;;;25.30;;
54368;SDS011;40266;52.434;17.056;2023-02-24T02:41:18;45.10;;;25.50;;
54368;SDS011;40266;52.434;17.056;2023-02-24T02:44:09;58.40;;;26.80;;
54368;SDS011;40266;52.434;17.056;2023-02-24T02:47:12;57.60;;;25.00;;
54368;SDS011;40266;52.434;17.056;2023-02-24T02:50:11;50.20;;;24.80;;
54368;SDS011;40266;52.434;17.056;2023-02-24T02:53:02;49.00;;;22.20;;
54368;SDS011;40266;52.434;17.056;2023-02-24T02:55:58;49.30;;;22.60;;
54368;SDS011;40266;52.434;17.056;2023-02-24T02:58:52;48.00;;;21.50;;
54368;SDS011;40266;52.434;17.056;2023-02-24T03:01:39;46.90;;;21.70;;
54368;SDS011;40266;52.434;17.056;2023-02-24T03:04:26;45.20;;;20.70;;
54368;SDS011;40266;52.434;17.056;2023-02-24T03:07:12;45.80;;;20.40;;
54368;SDS011;40266;52.434;17.056;2023-02-24T03:10:00;41.90;;;20.30;;
54368;SDS011;40266;52.434;17.056;2023-02-24T03:12:54;44.10;;;21.20;;
54368;SDS011;40266;52.434;17.056;2023-02-24T03:15:41;43.70;;;20.10;;
54368;SDS011;40266;52.434;17.056;2023-02-24T03:18:28;39.30;;;19.30;;
54368;SDS011;40266;52.434;17.056;2023-02-24T03:21:23;41.10;;;18.90;;
54368;SDS011;40266;52.434;17.056;2023-02-24T03:24:12;42.00;;;21.00;;
54368;SDS011;40266;52.434;17.056;2023-02-24T03:30:03;39.80;;;18.90;;
54368;SDS011;40266;52.434;17.056;2023-02-24T03:33:01;43.90;;;20.70;;
54368;SDS011;40266;52.434;17.056;2023-02-24T03:36:04;39.20;;;19.70;;
54368;SDS011;40266;52.434;17.056;2023-02-24T03:38:53;47.60;;;20.40;;
54368;SDS011;40266;52.434;17.056;2023-02-24T03:41:43;41.20;;;19.80;;
54368;SDS011;40266;52.434;17.056;2023-02-24T03:44:37;39.40;;;19.70;;
54368;SDS011;40266;52.434;17.056;2023-02-24T03:47:21;41.60;;;19.70;;
54368;SDS011;40266;52.434;17.056;2023-02-24T03:50:15;41.20;;;19.60;;
54368;SDS011;40266;52.434;17.056;2023-02-24T03:53:15;37.40;;;19.00;;
54368;SDS011;40266;52.434;17.056;2023-02-24T03:59:12;44.50;;;20.40;;
54368;SDS011;40266;52.434;17.056;2023-02-24T04:10:59;42.20;;;20.00;;
54368;SDS011;40266;52.434;17.056;2023-02-24T04:13:54;42.90;;;21.00;;
54368;SDS011;40266;52.434;17.056;2023-02-24T04:16:51;47.90;;;21.50;;
54368;SDS011;40266;52.434;17.056;2023-02-24T04:19:59;45.60;;;20.00;;
54368;SDS011;40266;52.434;17.056;2023-02-24T04:23:05;44.10;;;20.60;;
54368;SDS011;40266;52.434;17.056;2023-02-24T04:25:52;42.40;;;20.70;;
54368;SDS011;40266;52.434;17.056;2023-02-24T04:28:40;44.10;;;20.00;;
54368;SDS011;40266;52.434;17.056;2023-02-24T04:31:26;45.30;;;19.90;;
54368;SDS011;40266;52.434;17.056;2023-02-24T04:34:14;46.60;;;20.80;;
54368;SDS011;40266;52.434;17.056;2023-02-24T04:37:03;41.50;;;19.40;;
54368;SDS011;40266;52.434;17.056;2023-02-24T04:39:48;46.10;;;22.20;;
54368;SDS011;40266;52.434;17.056;2023-02-24T04:42:40;44.00;;;20.10;;
54368;SDS011;40266;52.434;17.056;2023-02-24T04:45:32;43.60;;;19.60;;
54368;SDS011;40266;52.434;17.056;2023-02-24T04:48:18;45.30;;;20.60;;
54368;SDS011;40266;52.434;17.056;2023-02-24T04:51:05;49.10;;;22.20;;
54368;SDS011;40266;52.434;17.056;2023-02-24T04:53:49;44.40;;;21.00;;
54368;SDS011;40266;52.434;17.056;2023-02-24T04:56:37;46.70;;;20.30;;
54368;SDS011;40266;52.434;17.056;2023-02-24T04:59:23;46.10;;;20.60;;
54368;SDS011;40266;52.434;17.056;2023-02-24T05:02:08;49.30;;;21.10;;
54368;SDS011;40266;52.434;17.056;2023-02-24T05:04:51;46.80;;;20.90;;
54368;SDS011;40266;52.434;17.056;2023-02-24T05:07:37;43.80;;;19.80;;
54368;SDS011;40266;52.434;17.056;2023-02-24T05:10:22;47.40;;;20.40;;
54368;SDS011;40266;52.434;17.056;2023-02-24T05:13:16;50.30;;;20.60;;
54368;SDS011;40266;52.434;17.056;2023-02-24T05:16:05;51.00;;;21.30;;
54368;SDS011;40266;52.434;17.056;2023-02-24T05:18:50;45.80;;;20.40;;
54368;SDS011;40266;52.434;17.056;2023-02-24T05:21:54;50.50;;;19.80;;
54368;SDS011;40266;52.434;17.056;2023-02-24T05:24:41;45.40;;;20.80;;
54368;SDS011;40266;52.434;17.056;2023-02-24T05:27:26;50.20;;;22.20;;
54368;SDS011;40266;52.434;17.056;2023-02-24T05:30:10;53.50;;;22.10;;
54368;SDS011;40266;52.434;17.056;2023-02-24T05:32:57;53.50;;;20.60;;
54368;SDS011;40266;52.434;17.056;2023-02-24T05:35:41;47.90;;;20.00;;
54368;SDS011;40266;52.434;17.056;2023-02-24T05:38:25;55.00;;;22.50;;
54368;SDS011;40266;52.434;17.056;2023-02-24T05:41:13;50.00;;;20.10;;
54368;SDS011;40266;52.434;17.056;2023-02-24T05:44:00;48.70;;;19.60;;
54368;SDS011;40266;52.434;17.056;2023-02-24T05:46:48;52.30;;;21.40;;
54368;SDS011;40266;52.434;17.056;2023-02-24T05:49:35;48.10;;;20.90;;
54368;SDS011;40266;52.434;17.056;2023-02-24T05:52:21;49.30;;;20.00;;
54368;SDS011;40266;52.434;17.056;2023-02-24T05:55:05;47.90;;;19.00;;
54368;SDS011;40266;52.434;17.056;2023-02-24T05:57:56;47.70;;;18.80;;
54368;SDS011;40266;52.434;17.056;2023-02-24T06:00:42;41.80;;;16.90;;
54368;SDS011;40266;52.434;17.056;2023-02-24T06:03:28;43.80;;;17.40;;
54368;SDS011;40266;52.434;17.056;2023-02-24T06:06:13;50.50;;;18.00;;
54368;SDS011;40266;52.434;17.056;2023-02-24T06:08:59;45.70;;;18.70;;
54368;SDS011;40266;52.434;17.056;2023-02-24T06:11:49;51.70;;;19.10;;
54368;SDS011;40266;52.434;17.056;2023-02-24T06:14:34;47.70;;;19.00;;
54368;SDS011;40266;52.434;17.056;2023-02-24T06:17:18;45.70;;;18.50;;
54368;SDS011;40266;52.434;17.056;2023-02-24T06:20:05;47.80;;;18.20;;
54368;SDS011;40266;52.434;17.056;2023-02-24T06:22:57;41.40;;;16.50;;
54368;SDS011;40266;52.434;17.056;2023-02-24T06:25:40;41.10;;;18.50;;
54368;SDS011;40266;52.434;17.056;2023-02-24T06:28:23;46.20;;;17.80;;
54368;SDS011;40266;52.434;17.056;2023-02-24T06:31:08;48.40;;;18.30;;
54368;SDS011;40266;52.434;17.056;2023-02-24T06:33:54;40.80;;;17.90;;
54368;SDS011;40266;52.434;17.056;2023-02-24T06:36:41;46.00;;;16.50;;
54368;SDS011;40266;52.434;17.056;2023-02-24T06:39:33;35.40;;;14.30;;
54368;SDS011;40266;52.434;17.056;2023-02-24T06:42:29;43.40;;;15.60;;
54368;SDS011;40266;52.434;17.056;2023-02-24T06:45:14;44.20;;;16.90;;
54368;SDS011;40266;52.434;17.056;2023-02-24T06:47:59;37.20;;;14.90;;
54368;SDS011;40266;52.434;17.056;2023-02-24T06:50:43;39.20;;;16.10;;
54368;SDS011;40266;52.434;17.056;2023-02-24T06:53:30;45.10;;;16.40;;
54368;SDS011;40266;52.434;17.056;2023-02-24T06:56:17;41.30;;;15.10;;
54368;SDS011;40266;52.434;17.056;2023-02-24T06:59:02;42.60;;;16.20;;
54368;SDS011;40266;52.434;17.056;2023-02-24T07:01:47;37.20;;;13.90;;
54368;SDS011;40266;52.434;17.056;2023-02-24T07:04:37;26.10;;;10.00;;
54368;SDS011;40266;52.434;17.056;2023-02-24T07:07:30;19.70;;;7.70;;
54368;SDS011;40266;52.434;17.056;2023-02-24T07:10:15;14.70;;;5.50;;
54368;SDS011;40266;52.434;17.056;2023-02-24T07:13:00;14.70;;;6.20;;
54368;SDS011;40266;52.434;17.056;2023-02-24T07:15:45;12.10;;;4.90;;
54368;SDS011;40266;52.434;17.056;2023-02-24T07:18:39;10.60;;;4.70;;
54368;SDS011;40266;52.434;17.056;2023-02-24T07:21:24;9.40;;;4.20;;
54368;SDS011;40266;52.434;17.056;2023-02-24T07:24:10;10.20;;;4.80;;
54368;SDS011;40266;52.434;17.056;2023-02-24T07:26:58;12.10;;;5.40;;
54368;SDS011;40266;52.434;17.056;2023-02-24T07:29:43;8.00;;;4.00;;
54368;SDS011;40266;52.434;17.056;2023-02-24T07:32:28;9.50;;;4.50;;
54368;SDS011;40266;52.434;17.056;2023-02-24T07:35:13;6.50;;;3.90;;
54368;SDS011;40266;52.434;17.056;2023-02-24T07:37:56;5.40;;;3.00;;
54368;SDS011;40266;52.434;17.056;2023-02-24T07:40:45;7.30;;;3.00;;
54368;SDS011;40266;52.434;17.056;2023-02-24T07:43:41;6.90;;;2.90;;
54368;SDS011;40266;52.434;17.056;2023-02-24T07:46:26;6.60;;;3.20;;
54368;SDS011;40266;52.434;17.056;2023-02-24T07:49:12;8.60;;;3.60;;
54368;SDS011;40266;52.434;17.056;2023-02-24T07:51:57;8.30;;;3.40;;
54368;SDS011;40266;52.434;17.056;2023-02-24T07:54:43;10.40;;;3.90;;
54368;SDS011;40266;52.434;17.056;2023-02-24T07:57:26;9.30;;;4.20;;
54368;SDS011;40266;52.434;17.056;2023-02-24T08:00:16;7.80;;;3.90;;
54368;SDS011;40266;52.434;17.056;2023-02-24T08:03:10;10.30;;;4.10;;
54368;SDS011;40266;52.434;17.056;2023-02-24T08:05:56;10.80;;;5.30;;
54368;SDS011;40266;52.434;17.056;2023-02-24T08:08:57;9.70;;;4.70;;
54368;SDS011;40266;52.434;17.056;2023-02-24T08:11:42;12.90;;;5.00;;
54368;SDS011;40266;52.434;17.056;2023-02-24T08:14:28;12.60;;;4.50;;
54368;SDS011;40266;52.434;17.056;2023-02-24T08:17:22;10.80;;;5.10;;
54368;SDS011;40266;52.434;17.056;2023-02-24T08:20:09;13.00;;;5.70;;
54368;SDS011;40266;52.434;17.056;2023-02-24T08:22:56;12.20;;;6.00;;
54368;SDS011;40266;52.434;17.056;2023-02-24T08:25:40;12.30;;;5.90;;
54368;SDS011;40266;52.434;17.056;2023-02-24T08:28:28;17.30;;;6.00;;
54368;SDS011;40266;52.434;17.056;2023-02-24T08:31:12;12.10;;;6.10;;
54368;SDS011;40266;52.434;17.056;2023-02-24T08:34:14;19.00;;;6.60;;
54368;SDS011;40266;52.434;17.056;2023-02-24T08:36:58;19.40;;;6.50;;
54368;SDS011;40266;52.434;17.056;2023-02-24T08:39:45;20.20;;;7.50;;
54368;SDS011;40266;52.434;17.056;2023-02-24T08:42:31;19.20;;;5.20;;
54368;SDS011;40266;52.434;17.056;2023-02-24T08:45:21;16.60;;;5.10;;
54368;SDS011;40266;52.434;17.056;2023-02-24T08:48:04;15.20;;;4.40;;
54368;SDS011;40266;52.434;17.056;2023-02-24T08:54:24;15.10;;;4.10;;
54368;SDS011;40266;52.434;17.056;2023-02-24T08:57:13;14.40;;;4.10;;
54368;SDS011;40266;52.434;17.056;2023-02-24T09:00:00;19.40;;;5.40;;
54368;SDS011;40266;52.434;17.056;2023-02-24T09:02:49;16.80;;;4.90;;
54368;SDS011;40266;52.434;17.056;2023-02-24T09:05:33;20.00;;;4.90;;
54368;SDS011;40266;52.434;17.056;2023-02-24T09:08:26;17.80;;;4.40;;
54368;SDS011;40266;52.434;17.056;2023-02-24T09:11:15;15.40;;;4.40;;
54368;SDS011;40266;52.434;17.056;2023-02-24T09:14:07;15.00;;;4.60;;
54368;SDS011;40266;52.434;17.056;2023-02-24T09:17:13;21.30;;;5.30;;
54368;SDS011;40266;52.434;17.056;2023-02-24T09:19:57;22.50;;;7.00;;
54368;SDS011;40266;52.434;17.056;2023-02-24T09:25:52;18.70;;;5.40;;
54368;SDS011;40266;52.434;17.056;2023-02-24T09:28:40;16.20;;;4.60;;
54368;SDS011;40266;52.434;17.056;2023-02-24T09:31:55;16.20;;;4.70;;
54368;SDS011;40266;52.434;17.056;2023-02-24T09:34:58;34.90;;;5.20;;
54368;SDS011;40266;52.434;17.056;2023-02-24T09:37:42;17.00;;;5.10;;
54368;SDS011;40266;52.434;17.056;2023-02-24T09:40:31;21.40;;;5.10;;
54368;SDS011;40266;52.434;17.056;2023-02-24T09:43:31;16.20;;;5.00;;
54368;SDS011;40266;52.434;17.056;2023-02-24T09:46:26;15.80;;;4.60;;
54368;SDS011;40266;52.434;17.056;2023-02-24T09:49:12;16.10;;;3.90;;
54368;SDS011;40266;52.434;17.056;2023-02-24T09:52:01;17.40;;;3.60;;
54368;SDS011;40266;52.434;17.056;2023-02-24T09:54:55;18.00;;;4.80;;
54368;SDS011;40266;52.434;17.056;2023-02-24T10:07:58;17.90;;;4.70;;
54368;SDS011;40266;52.434;17.056;2023-02-24T10:10:44;15.60;;;4.30;;
54368;SDS011;40266;52.434;17.056;2023-02-24T10:13:54;14.00;;;3.80;;
54368;SDS011;40266;52.434;17.056;2023-02-24T10:16:45;16.60;;;5.10;;
54368;SDS011;40266;52.434;17.056;2023-02-24T10:26:51;30.00;;;6.90;;
54368;SDS011;40266;52.434;17.056;2023-02-24T10:30:06;15.60;;;4.10;;
54368;SDS011;40266;52.434;17.056;2023-02-24T10:33:28;17.70;;;4.20;;
54368;SDS011;40266;52.434;17.056;2023-02-24T10:36:22;12.20;;;4.10;;
54368;SDS011;40266;52.434;17.056;2023-02-24T10:39:22;15.20;;;4.90;;
54368;SDS011;40266;52.434;17.056;2023-02-24T10:42:27;15.80;;;3.80;;
54368;SDS011;40266;52.434;17.056;2023-02-24T10:48:08;15.70;;;4.60;;
54368;SDS011;40266;52.434;17.056;2023-02-24T10:50:58;15.40;;;3.70;;
54368;SDS011;40266;52.434;17.056;2023-02-24T10:54:02;20.20;;;4.20;;
54368;SDS011;40266;52.434;17.056;2023-02-24T10:57:27;11.80;;;3.70;;
54368;SDS011;40266;52.434;17.056;2023-02-24T11:00:54;18.70;;;4.80;;
54368;SDS011;40266;52.434;17.056;2023-02-24T11:03:58;15.70;;;5.00;;
54368;SDS011;40266;52.434;17.056;2023-02-24T11:07:15;16.10;;;4.40;;
54368;SDS011;40266;52.434;17.056;2023-02-24T11:10:23;19.50;;;3.90;;
54368;SDS011;40266;52.434;17.056;2023-02-24T11:13:15;18.70;;;5.80;;
54368;SDS011;40266;52.434;17.056;2023-02-24T11:16:57;23.50;;;5.10;;
54368;SDS011;40266;52.434;17.056;2023-02-24T11:20:23;18.90;;;6.40;;
54368;SDS011;40266;52.434;17.056;2023-02-24T11:27:14;17.00;;;5.10;;
54368;SDS011;40266;52.434;17.056;2023-02-24T11:33:59;18.90;;;4.40;;
54368;SDS011;40266;52.434;17.056;2023-02-24T11:42:07;12.10;;;3.90;;
54368;SDS011;40266;52.434;17.056;2023-02-24T11:44:57;15.10;;;4.20;;
54368;SDS011;40266;52.434;17.056;2023-02-24T11:47:53;20.30;;;4.90;;
54368;SDS011;40266;52.434;17.056;2023-02-24T11:59:43;11.50;;;4.10;;
54368;SDS011;40266;52.434;17.056;2023-02-24T12:02:33;16.80;;;5.00;;
54368;SDS011;40266;52.434;17.056;2023-02-24T12:05:27;20.40;;;4.90;;
54368;SDS011;40266;52.434;17.056;2023-02-24T12:11:24;14.90;;;4.50;;
54368;SDS011;40266;52.434;17.056;2023-02-24T12:17:15;13.00;;;4.20;;
54368;SDS011;40266;52.434;17.056;2023-02-24T12:58:01;8.50;;;3.40;;
54368;SDS011;40266;52.434;17.056;2023-02-24T13:13:12;6.10;;;2.80;;
54368;SDS011;40266;52.434;17.056;2023-02-24T13:15:59;12.30;;;4.20;;
54368;SDS011;40266;52.434;17.056;2023-02-24T13:18:48;10.00;;;3.60;;
54368;SDS011;40266;52.434;17.056;2023-02-24T13:21:32;11.50;;;3.90;;
54368;SDS011;40266;52.434;17.056;2023-02-24T13:24:19;11.70;;;3.50;;
54368;SDS011;40266;52.434;17.056;2023-02-24T13:27:16;13.50;;;3.90;;
54368;SDS011;40266;52.434;17.056;2023-02-24T13:33:58;9.00;;;3.60;;
54368;SDS011;40266;52.434;17.056;2023-02-24T13:36:15;11.20;;;3.40;;
54368;SDS011;40266;52.434;17.056;2023-02-24T13:39:17;14.90;;;3.40;;
54368;SDS011;40266;52.434;17.056;2023-02-24T14:03:11;10.00;;;3.10;;
54368;SDS011;40266;52.434;17.056;2023-02-24T14:06:02;11.00;;;3.20;;
54368;SDS011;40266;52.434;17.056;2023-02-24T14:08:48;12.30;;;3.20;;
54368;SDS011;40266;52.434;17.056;2023-02-24T14:15:02;12.40;;;4.00;;
54368;SDS011;40266;52.434;17.056;2023-02-24T14:17:57;10.80;;;2.80;;
54368;SDS011;40266;52.434;17.056;2023-02-24T14:20:43;9.50;;;3.20;;
54368;SDS011;40266;52.434;17.056;2023-02-24T14:23:28;10.20;;;3.10;;
54368;SDS011;40266;52.434;17.056;2023-02-24T14:26:13;7.80;;;2.80;;
54368;SDS011;40266;52.434;17.056;2023-02-24T14:29:08;11.80;;;3.40;;
54368;SDS011;40266;52.434;17.056;2023-02-24T14:31:53;13.60;;;3.40;;
54368;SDS011;40266;52.434;17.056;2023-02-24T14:34:38;9.30;;;3.10;;
54368;SDS011;40266;52.434;17.056;2023-02-24T14:37:22;10.90;;;3.30;;
54368;SDS011;40266;52.434;17.056;2023-02-24T14:40:13;56.50;;;23.70;;
54368;SDS011;40266;52.434;17.056;2023-02-24T14:43:04;30.60;;;8.30;;
54368;SDS011;40266;52.434;17.056;2023-02-24T14:45:56;36.90;;;14.10;;
54368;SDS011;40266;52.434;17.056;2023-02-24T14:48:40;13.40;;;5.00;;
54368;SDS011;40266;52.434;17.056;2023-02-24T14:51:34;13.90;;;3.90;;
54368;SDS011;40266;52.434;17.056;2023-02-24T14:54:20;11.00;;;3.30;;
54368;SDS011;40266;52.434;17.056;2023-02-24T14:57:21;11.30;;;3.40;;
54368;SDS011;40266;52.434;17.056;2023-02-24T15:00:18;5.10;;;2.80;;
54368;SDS011;40266;52.434;17.056;2023-02-24T15:06:14;12.00;;;3.30;;
54368;SDS011;40266;52.434;17.056;2023-02-24T15:09:09;9.70;;;3.40;;
54368;SDS011;40266;52.434;17.056;2023-02-24T15:11:57;8.20;;;3.20;;
54368;SDS011;40266;52.434;17.056;2023-02-24T15:14:50;14.60;;;5.50;;
54368;SDS011;40266;52.434;17.056;2023-02-24T15:20:31;11.20;;;3.20;;
54368;SDS011;40266;52.434;17.056;2023-02-24T15:23:36;14.60;;;3.80;;
54368;SDS011;40266;52.434;17.056;2023-02-24T15:26:40;9.50;;;3.70;;
54368;SDS011;40266;52.434;17.056;2023-02-24T15:29:25;9.40;;;3.40;;
54368;SDS011;40266;52.434;17.056;2023-02-24T15:32:17;18.10;;;4.10;;
54368;SDS011;40266;52.434;17.056;2023-02-24T15:35:05;12.10;;;4.00;;
54368;SDS011;40266;52.434;17.056;2023-02-24T15:37:49;11.80;;;3.40;;
54368;SDS011;40266;52.434;17.056;2023-02-24T15:40:34;11.10;;;3.60;;
54368;SDS011;40266;52.434;17.056;2023-02-24T15:46:34;10.50;;;3.50;;
54368;SDS011;40266;52.434;17.056;2023-02-24T15:49:18;14.40;;;4.50;;
54368;SDS011;40266;52.434;17.056;2023-02-24T15:52:01;16.30;;;6.00;;
54368;SDS011;40266;52.434;17.056;2023-02-24T15:54:47;16.90;;;5.80;;
54368;SDS011;40266;52.434;17.056;2023-02-24T15:57:30;14.60;;;5.00;;
54368;SDS011;40266;52.434;17.056;2023-02-24T16:00:20;14.90;;;4.60;;
54368;SDS011;40266;52.434;17.056;2023-02-24T16:03:05;14.30;;;4.20;;
54368;SDS011;40266;52.434;17.056;2023-02-24T16:05:48;14.70;;;4.50;;
54368;SDS011;40266;52.434;17.056;2023-02-24T16:08:31;12.30;;;5.20;;
54368;SDS011;40266;52.434;17.056;2023-02-24T16:11:16;12.90;;;4.30;;
54368;SDS011;40266;52.434;17.056;2023-02-24T16:14:07;15.70;;;5.10;;
54368;SDS011;40266;52.434;17.056;2023-02-24T16:16:55;19.30;;;6.00;;
54368;SDS011;40266;52.434;17.056;2023-02-24T16:19:47;19.30;;;5.60;;
54368;SDS011;40266;52.434;17.056;2023-02-24T16:22:30;14.50;;;5.60;;
54368;SDS011;40266;52.434;17.056;2023-02-24T16:25:14;23.90;;;8.00;;
54368;SDS011;40266;52.434;17.056;2023-02-24T16:27:58;20.50;;;6.40;;
54368;SDS011;40266;52.434;17.056;2023-02-24T16:30:43;15.80;;;5.80;;
54368;SDS011;40266;52.434;17.056;2023-02-24T16:33:27;16.50;;;6.20;;
54368;SDS011;40266;52.434;17.056;2023-02-24T16:36:11;15.80;;;5.60;;
54368;SDS011;40266;52.434;17.056;2023-02-24T16:38:54;15.60;;;5.30;;
54368;SDS011;40266;52.434;17.056;2023-02-24T16:41:38;14.90;;;5.70;;
54368;SDS011;40266;52.434;17.056;2023-02-24T16:44:21;19.50;;;6.80;;
54368;SDS011;40266;52.434;17.056;2023-02-24T16:47:05;17.60;;;6.60;;
54368;SDS011;40266;52.434;17.056;2023-02-24T16:49:53;17.90;;;7.40;;
54368;SDS011;40266;52.434;17.056;2023-02-24T16:52:39;26.80;;;7.60;;
54368;SDS011;40266;52.434;17.056;2023-02-24T16:55:23;19.60;;;7.60;;
54368;SDS011;40266;52.434;17.056;2023-02-24T16:58:07;19.70;;;9.50;;
54368;SDS011;40266;52.434;17.056;2023-02-24T17:00:53;21.50;;;8.30;;
54368;SDS011;40266;52.434;17.056;2023-02-24T17:03:41;21.00;;;8.40;;
54368;SDS011;40266;52.434;17.056;2023-02-24T17:06:27;18.00;;;8.00;;
54368;SDS011;40266;52.434;17.056;2023-02-24T17:09:11;19.80;;;7.10;;
54368;SDS011;40266;52.434;17.056;2023-02-24T17:11:57;27.10;;;8.80;;
54368;SDS011;40266;52.434;17.056;2023-02-24T17:14:44;17.80;;;8.30;;
54368;SDS011;40266;52.434;17.056;2023-02-24T17:17:27;21.70;;;8.10;;
54368;SDS011;40266;52.434;17.056;2023-02-24T17:20:12;20.90;;;7.60;;
54368;SDS011;40266;52.434;17.056;2023-02-24T17:22:59;18.70;;;7.60;;
54368;SDS011;40266;52.434;17.056;2023-02-24T17:25:42;21.10;;;8.20;;
54368;SDS011;40266;52.434;17.056;2023-02-24T17:28:25;24.30;;;7.60;;
54368;SDS011;40266;52.434;17.056;2023-02-24T17:31:09;20.60;;;7.50;;
54368;SDS011;40266;52.434;17.056;2023-02-24T17:33:52;15.50;;;7.00;;
54368;SDS011;40266;52.434;17.056;2023-02-24T17:36:36;26.60;;;12.50;;
54368;SDS011;40266;52.434;17.056;2023-02-24T17:39:20;34.70;;;12.20;;
54368;SDS011;40266;52.434;17.056;2023-02-24T17:42:03;87.10;;;41.90;;
54368;SDS011;40266;52.434;17.056;2023-02-24T17:44:46;31.10;;;11.40;;
54368;SDS011;40266;52.434;17.056;2023-02-24T17:47:30;21.30;;;7.40;;
54368;SDS011;40266;52.434;17.056;2023-02-24T17:50:14;18.90;;;7.70;;
54368;SDS011;40266;52.434;17.056;2023-02-24T17:52:58;19.50;;;6.80;;
54368;SDS011;40266;52.434;17.056;2023-02-24T17:55:44;19.20;;;7.30;;
54368;SDS011;40266;52.434;17.056;2023-02-24T17:58:44;20.80;;;8.40;;
54368;SDS011;40266;52.434;17.056;2023-02-24T18:01:27;18.60;;;7.90;;
54368;SDS011;40266;52.434;17.056;2023-02-24T18:04:10;23.90;;;8.50;;
54368;SDS011;40266;52.434;17.056;2023-02-24T18:06:56;22.80;;;8.20;;
54368;SDS011;40266;52.434;17.056;2023-02-24T18:09:39;20.30;;;8.20;;
54368;SDS011;40266;52.434;17.056;2023-02-24T18:12:22;16.80;;;7.70;;
54368;SDS011;40266;52.434;17.056;2023-02-24T18:15:06;19.10;;;8.20;;
54368;SDS011;40266;52.434;17.056;2023-02-24T18:17:51;18.30;;;7.60;;
54368;SDS011;40266;52.434;17.056;2023-02-24T18:20:46;21.30;;;7.80;;
54368;SDS011;40266;52.434;17.056;2023-02-24T18:23:32;19.90;;;6.80;;
54368;SDS011;40266;52.434;17.056;2023-02-24T18:26:55;20.90;;;6.70;;
54368;SDS011;40266;52.434;17.056;2023-02-24T18:29:38;17.60;;;6.90;;
54368;SDS011;40266;52.434;17.056;2023-02-24T18:32:21;17.40;;;7.10;;
54368;SDS011;40266;52.434;17.056;2023-02-24T18:35:04;16.80;;;6.00;;
54368;SDS011;40266;52.434;17.056;2023-02-24T18:37:50;16.40;;;5.80;;
54368;SDS011;40266;52.434;17.056;2023-02-24T18:40:38;14.20;;;5.00;;
54368;SDS011;40266;52.434;17.056;2023-02-24T18:43:23;13.50;;;5.90;;
54368;SDS011;40266;52.434;17.056;2023-02-24T18:46:09;15.40;;;6.20;;
54368;SDS011;40266;52.434;17.056;2023-02-24T18:48:55;19.00;;;5.60;;
54368;SDS011;40266;52.434;17.056;2023-02-24T18:51:39;18.70;;;7.00;;
54368;SDS011;40266;52.434;17.056;2023-02-24T18:54:31;14.80;;;5.70;;
54368;SDS011;40266;52.434;17.056;2023-02-24T18:57:14;16.90;;;6.10;;
54368;SDS011;40266;52.434;17.056;2023-02-24T18:59:57;18.40;;;6.90;;
54368;SDS011;40266;52.434;17.056;2023-02-24T19:05:54;15.40;;;6.10;;
54368;SDS011;40266;52.434;17.056;2023-02-24T19:08:42;17.00;;;6.40;;
54368;SDS011;40266;52.434;17.056;2023-02-24T19:11:27;15.70;;;6.60;;
54368;SDS011;40266;52.434;17.056;2023-02-24T19:14:11;17.10;;;5.00;;
54368;SDS011;40266;52.434;17.056;2023-02-24T19:16:56;17.10;;;6.10;;
54368;SDS011;40266;52.434;17.056;2023-02-24T19:19:40;20.20;;;6.90;;
54368;SDS011;40266;52.434;17.056;2023-02-24T19:22:25;10.50;;;5.00;;
54368;SDS011;40266;52.434;17.056;2023-02-24T19:25:08;16.80;;;5.40;;
54368;SDS011;40266;52.434;17.056;2023-02-24T19:27:52;13.30;;;5.10;;
54368;SDS011;40266;52.434;17.056;2023-02-24T19:30:39;11.30;;;4.80;;
54368;SDS011;40266;52.434;17.056;2023-02-24T19:33:23;15.70;;;5.60;;
54368;SDS011;40266;52.434;17.056;2023-02-24T19:36:06;13.60;;;5.10;;
54368;SDS011;40266;52.434;17.056;2023-02-24T19:38:52;18.00;;;6.00;;
54368;SDS011;40266;52.434;17.056;2023-02-24T19:41:36;15.30;;;5.60;;
54368;SDS011;40266;52.434;17.056;2023-02-24T19:44:20;13.20;;;5.00;;
54368;SDS011;40266;52.434;17.056;2023-02-24T19:47:03;11.90;;;4.60;;
54368;SDS011;40266;52.434;17.056;2023-02-24T19:49:47;8.50;;;4.20;;
54368;SDS011;40266;52.434;17.056;2023-02-24T19:52:34;11.90;;;4.90;;
54368;SDS011;40266;52.434;17.056;2023-02-24T19:55:17;10.40;;;4.70;;
54368;SDS011;40266;52.434;17.056;2023-02-24T19:58:02;9.10;;;4.60;;
54368;SDS011;40266;52.434;17.056;2023-02-24T20:00:45;13.90;;;5.80;;
54368;SDS011;40266;52.434;17.056;2023-02-24T20:03:32;15.00;;;5.40;;
54368;SDS011;40266;52.434;17.056;2023-02-24T20:09:12;9.80;;;4.90;;
54368;SDS011;40266;52.434;17.056;2023-02-24T20:15:08;10.20;;;4.30;;
54368;SDS011;40266;52.434;17.056;2023-02-24T20:17:54;7.00;;;3.90;;
54368;SDS011;40266;52.434;17.056;2023-02-24T20:20:40;10.20;;;4.80;;
54368;SDS011;40266;52.434;17.056;2023-02-24T20:23:25;12.20;;;5.10;;
54368;SDS011;40266;52.434;17.056;2023-02-24T20:26:12;10.20;;;4.50;;
54368;SDS011;40266;52.434;17.056;2023-02-24T20:28:58;12.20;;;5.10;;
54368;SDS011;40266;52.434;17.056;2023-02-24T20:31:42;12.30;;;5.70;;
54368;SDS011;40266;52.434;17.056;2023-02-24T20:34:25;10.60;;;5.00;;
54368;SDS011;40266;52.434;17.056;2023-02-24T20:37:08;11.10;;;4.90;;
54368;SDS011;40266;52.434;17.056;2023-02-24T20:39:51;13.20;;;5.30;;
54368;SDS011;40266;52.434;17.056;2023-02-24T20:42:35;10.10;;;5.40;;
54368;SDS011;40266;52.434;17.056;2023-02-24T20:45:18;15.90;;;6.10;;
54368;SDS011;40266;52.434;17.056;2023-02-24T20:48:03;13.70;;;6.80;;
54368;SDS011;40266;52.434;17.056;2023-02-24T20:50:46;13.40;;;6.00;;
54368;SDS011;40266;52.434;17.056;2023-02-24T20:53:30;16.70;;;7.60;;
54368;SDS011;40266;52.434;17.056;2023-02-24T20:56:13;14.50;;;6.40;;
54368;SDS011;40266;52.434;17.056;2023-02-24T20:59:25;15.70;;;6.80;;
54368;SDS011;40266;52.434;17.056;2023-02-24T21:04:53;15.70;;;7.00;;
54368;SDS011;40266;52.434;17.056;2023-02-24T21:07:36;16.80;;;6.00;;
54368;SDS011;40266;52.434;17.056;2023-02-24T21:10:20;10.60;;;5.80;;